An Run Da 2 — BHNX — position and weather

sailwx.info

Track history (hours):
 
Tides and Currents Weather Stations Pressure Air Temp Water Temp Dewpoint Dewpoint Depression Visibility Wind Speed Wind Dir Waves Ship Positions

An Run Da 2

Last reported at 2016-Jun-28 10:14 UTC. Time now 2016-Jun-29 05:39 UTC.
Position N 32°07' E 119°55'.

Length 147 m; draft 8.4 m.

Type: Cargo ship. MMSI: 413360230.

Date/timePositionNaut miles runAvg speedWind from/ knotsBaromVisibWave heightAir tempDewpointWater temp
2016-Jun-28 10:14N 32°07' E 119°55'5 6.1
2016-Jun-28 09:28N 32°03' E 119°56'6 5.5
2016-Jun-28 08:28N 31°59' E 120°01'5 5.1
2016-Jun-28 07:32N 31°57' E 120°06'6 6.3
2016-Jun-28 06:32N 31°56' E 120°13'13 6.4
2016-Jun-28 04:34N 32°02' E 120°26'7 6.5
2016-Jun-28 03:27N 32°00' E 120°35'8 6.9
2016-Jun-28 02:22N 32°00' E 120°43'7 6.9
2016-Jun-28 01:24N 31°58' E 120°51'9 8.2
2016-Jun-28 00:17N 31°50' E 120°54'9 8.3
2016-Jun-27 23:09N 31°46' E 121°04'6 9.7
2016-Jun-27 22:33N 31°42' E 121°09'10 9.7
2016-Jun-27 21:34N 31°35' E 121°18'10 9.7
2016-Jun-27 20:33N 31°29' E 121°27'1010.3
2016-Jun-27 19:33N 31°23' E 121°36'1010.1
2016-Jun-27 18:31N 31°18' E 121°47'50 7.2
2016-Jun-27 11:30N 30°47' E 122°34'9 9.0
2016-Jun-27 10:33N 30°40' E 122°38'46 9.2
2016-Jun-27 05:33N 29°55' E 122°27'0 0.0
2016-Jun-27 04:32N 29°55' E 122°27'4 2.6
2016-Jun-27 03:05N 29°51' E 122°29'4 6.9
2016-Jun-27 02:27N 29°47' E 122°26'7 8.0
2016-Jun-27 01:33N 29°42' E 122°21'1 0.4
2016-Jun-26 23:11N 29°41' E 122°20'0 0.0
2016-Jun-26 22:23N 29°41' E 122°20'0 0.0
2016-Jun-26 21:29N 29°41' E 122°20'0 0.1
2016-Jun-26 20:33N 29°41' E 122°20'8 7.6
2016-Jun-26 19:33N 29°45' E 122°12'1 0.0
2016-Jun-25 15:32N 29°43' E 122°11'1 1.2
2016-Jun-25 14:33N 29°45' E 122°12'7 6.1
2016-Jun-25 13:27N 29°42' E 122°19'1 0.1
2016-Jun-25 04:17N 29°41' E 122°20'0 0.1
2016-Jun-25 02:33N 29°41' E 122°20'  
Track history (hours):
 
Tides and Currents Weather Stations Pressure Air Temp Water Temp Dewpoint Dewpoint Depression Visibility Wind Speed Wind Dir Waves Ship Positions

An Run Da 2

Last reported at 2016-Jun-28 10:14 UTC. Time now 2016-Jun-29 05:39 UTC.
Position N 32°07' E 119°55'.

Length 147 m; draft 8.4 m.

Type: Cargo ship. MMSI: 413360230.

Date/timePositionNaut miles runAvg speedWind from/ knotsBaromVisibWave heightAir tempDewpointWater temp
2016-Jun-28 10:14N 32°07' E 119°55'5 6.1
2016-Jun-28 09:28N 32°03' E 119°56'6 5.5
2016-Jun-28 08:28N 31°59' E 120°01'5 5.1
2016-Jun-28 07:32N 31°57' E 120°06'6 6.3
2016-Jun-28 06:32N 31°56' E 120°13'13 6.4
2016-Jun-28 04:34N 32°02' E 120°26'7 6.5
2016-Jun-28 03:27N 32°00' E 120°35'8 6.9
2016-Jun-28 02:22N 32°00' E 120°43'7 6.9
2016-Jun-28 01:24N 31°58' E 120°51'9 8.2
2016-Jun-28 00:17N 31°50' E 120°54'9 8.3
2016-Jun-27 23:09N 31°46' E 121°04'6 9.7
2016-Jun-27 22:33N 31°42' E 121°09'10 9.7
2016-Jun-27 21:34N 31°35' E 121°18'10 9.7
2016-Jun-27 20:33N 31°29' E 121°27'1010.3
2016-Jun-27 19:33N 31°23' E 121°36'1010.1
2016-Jun-27 18:31N 31°18' E 121°47'50 7.2
2016-Jun-27 11:30N 30°47' E 122°34'9 9.0
2016-Jun-27 10:33N 30°40' E 122°38'46 9.2
2016-Jun-27 05:33N 29°55' E 122°27'0 0.0
2016-Jun-27 04:32N 29°55' E 122°27'4 2.6
2016-Jun-27 03:05N 29°51' E 122°29'4 6.9
2016-Jun-27 02:27N 29°47' E 122°26'7 8.0
2016-Jun-27 01:33N 29°42' E 122°21'1 0.4
2016-Jun-26 23:11N 29°41' E 122°20'0 0.0
2016-Jun-26 22:23N 29°41' E 122°20'0 0.0
2016-Jun-26 21:29N 29°41' E 122°20'0 0.1
2016-Jun-26 20:33N 29°41' E 122°20'8 7.6
2016-Jun-26 19:33N 29°45' E 122°12'1 0.0
2016-Jun-25 15:32N 29°43' E 122°11'1 1.2
2016-Jun-25 14:33N 29°45' E 122°12'7 6.1
2016-Jun-25 13:27N 29°42' E 122°19'1 0.1
2016-Jun-25 04:17N 29°41' E 122°20'0 0.1
2016-Jun-25 02:33N 29°41' E 122°20'  

Dump ship's entire track history